createdAt,value
2023-04-22T00:00:44.291Z,78.54
2023-04-22T00:03:47.451Z,78.30
2023-04-22T00:06:52.156Z,78.03
2023-04-22T00:09:54.937Z,78.18
2023-04-22T00:12:57.758Z,78.19
2023-04-22T00:16:00.634Z,78.96
2023-04-22T00:19:03.593Z,79.33
2023-04-22T00:22:07.820Z,78.87
2023-04-22T00:25:10.795Z,78.84
2023-04-22T00:28:13.527Z,79.43
2023-04-22T00:31:16.421Z,79.75
2023-04-22T00:34:19.707Z,78.72
2023-04-22T00:37:24.533Z,78.94
2023-04-22T00:40:27.212Z,79.53
2023-04-22T00:43:29.932Z,79.55
2023-04-22T00:46:35.387Z,79.98
2023-04-22T00:49:38.575Z,79.84
2023-04-22T00:52:42.947Z,80.02
2023-04-22T00:55:45.683Z,80.48
2023-04-22T00:58:48.426Z,81.42
2023-04-22T01:01:51.775Z,80.60
2023-04-22T01:04:55.182Z,80.88
2023-04-22T01:07:59.835Z,81.57
2023-04-22T01:11:03.795Z,81.27
2023-04-22T01:14:06.636Z,81.09
2023-04-22T01:17:10.995Z,81.54
2023-04-22T01:20:14.062Z,81.42
2023-04-22T01:23:20.540Z,81.91
2023-04-22T01:26:23.431Z,82.14
2023-04-22T01:29:26.740Z,81.94
2023-04-22T01:32:30.850Z,82.28
2023-04-22T01:35:36.837Z,82.72
2023-04-22T01:38:41.240Z,82.83
2023-04-22T01:41:44.013Z,82.78
2023-04-22T01:44:46.782Z,82.62
2023-04-22T01:47:49.452Z,82.97
2023-04-22T01:50:52.411Z,83.29
2023-04-22T01:53:56.489Z,83.08
2023-04-22T01:56:59.437Z,83.19
2023-04-22T02:00:02.431Z,83.37
2023-04-22T02:03:05.228Z,82.85
2023-04-22T02:06:08.721Z,82.87
2023-04-22T02:09:12.755Z,83.22
2023-04-22T02:12:15.471Z,83.52
2023-04-22T02:15:18.225Z,83.41
2023-04-22T02:18:20.931Z,83.39
2023-04-22T02:21:23.737Z,83.98
2023-04-22T02:24:27.841Z,83.91
2023-04-22T02:27:30.598Z,83.75
2023-04-22T02:30:33.281Z,83.75
2023-04-22T02:33:36.437Z,83.56
2023-04-22T02:36:39.227Z,83.23
2023-04-22T02:39:43.239Z,83.17
2023-04-22T02:42:45.883Z,83.24
2023-04-22T02:45:48.572Z,83.41
2023-04-22T02:48:51.312Z,82.68
2023-04-22T02:51:53.990Z,83.42
2023-04-22T02:54:57.981Z,83.45
2023-04-22T02:58:00.672Z,83.78
2023-04-22T03:01:03.619Z,84.14
2023-04-22T03:04:06.366Z,84.07
2023-04-22T03:07:09.246Z,83.77
2023-04-22T03:10:13.389Z,83.80
2023-04-22T03:13:16.308Z,83.63
2023-04-22T03:16:19.277Z,84.13
2023-04-22T03:19:22.013Z,84.29
2023-04-22T03:22:24.723Z,84.54
2023-04-22T03:25:28.786Z,83.78
2023-04-22T03:28:31.537Z,83.57
2023-04-22T03:31:34.376Z,84.57
2023-04-22T03:34:37.480Z,84.68
2023-04-22T03:37:40.777Z,84.95
2023-04-22T03:40:44.967Z,84.73
2023-04-22T03:43:47.755Z,84.95
2023-04-22T03:46:50.631Z,84.84
2023-04-22T03:49:53.863Z,85.21
2023-04-22T03:52:56.647Z,85.87
2023-04-22T03:56:00.863Z,85.22
2023-04-22T03:59:03.608Z,85.14
2023-04-22T04:02:07.751Z,85.42
2023-04-22T04:05:12.160Z,85.32
2023-04-22T04:08:15.096Z,84.89
2023-04-22T04:11:19.244Z,84.63
2023-04-22T04:14:22.758Z,83.66
2023-04-22T04:17:26.070Z,84.33
2023-04-22T04:20:28.919Z,84.22
2023-04-22T04:23:32.206Z,85.50
2023-04-22T04:26:36.434Z,84.37
2023-04-22T04:29:39.778Z,85.05
2023-04-22T04:32:43.010Z,85.05
2023-04-22T04:35:45.911Z,84.83
2023-04-22T04:38:48.844Z,84.87
2023-04-22T04:41:55.094Z,85.73
2023-04-22T04:44:59.540Z,85.73
2023-04-22T04:48:02.686Z,86.26
2023-04-22T04:51:06.240Z,86.22
2023-04-22T04:54:08.996Z,85.87
2023-04-22T04:57:13.111Z,85.87
2023-04-22T05:00:16.104Z,86.18
2023-04-22T05:03:19.038Z,85.46
2023-04-22T05:06:21.940Z,85.62
2023-04-22T05:09:24.664Z,85.95
2023-04-22T05:12:28.843Z,86.06
2023-04-22T05:15:32.021Z,86.59
2023-04-22T05:18:34.762Z,86.59
2023-04-22T05:21:37.434Z,86.37
2023-04-22T05:24:40.115Z,86.66
2023-04-22T05:27:44.226Z,85.94
2023-04-22T05:30:46.875Z,85.93
2023-04-22T05:33:49.594Z,86.13
2023-04-22T05:36:52.591Z,86.53
2023-04-22T05:39:55.258Z,86.76
2023-04-22T05:42:59.484Z,86.71
2023-04-22T05:46:02.268Z,86.00
2023-04-22T05:49:05.039Z,85.96
2023-04-22T05:52:07.949Z,85.97
2023-04-22T05:55:10.958Z,86.32
2023-04-22T05:58:15.061Z,86.22
2023-04-22T06:01:17.848Z,86.17
2023-04-22T06:04:21.078Z,86.04
2023-04-22T06:07:24.196Z,87.03
2023-04-22T06:10:27.023Z,86.93
2023-04-22T06:13:31.067Z,86.60
2023-04-22T06:16:34.738Z,84.90
2023-04-22T06:19:38.349Z,84.54
2023-04-22T06:22:41.357Z,83.81
2023-04-22T06:25:44.594Z,82.48
2023-04-22T06:28:48.657Z,81.87
2023-04-22T06:31:51.712Z,81.09
2023-04-22T06:34:54.388Z,80.02
2023-04-22T06:37:57.080Z,79.47
2023-04-22T06:40:59.756Z,79.24
2023-04-22T06:44:03.877Z,78.44
2023-04-22T06:47:06.759Z,77.26
2023-04-22T06:50:10.726Z,76.92
2023-04-22T06:53:13.572Z,78.02
2023-04-22T06:56:16.573Z,79.93
2023-04-22T06:59:20.679Z,80.30
2023-04-22T07:02:23.910Z,79.33
2023-04-22T07:05:26.887Z,78.03
2023-04-22T07:08:29.728Z,78.49
2023-04-22T07:11:33.013Z,78.27
2023-04-22T07:14:38.070Z,78.18
2023-04-22T07:17:41.116Z,75.59
2023-04-22T07:20:44.033Z,74.78
2023-04-22T07:23:46.655Z,74.88
2023-04-22T07:26:49.464Z,75.10
2023-04-22T07:29:53.454Z,75.67
2023-04-22T07:32:56.317Z,75.32
2023-04-22T07:35:59.134Z,73.87
2023-04-22T07:39:01.756Z,73.82
2023-04-22T07:42:04.647Z,73.12
2023-04-22T07:45:09.877Z,73.13
2023-04-22T07:48:12.849Z,71.42
2023-04-22T07:51:15.836Z,69.97
2023-04-22T07:54:18.793Z,70.62
2023-04-22T07:57:22.702Z,69.79
2023-04-22T08:00:26.925Z,70.15
2023-04-22T08:03:29.866Z,70.56
2023-04-22T08:06:32.944Z,69.68
2023-04-22T08:09:35.841Z,69.21
2023-04-22T08:12:38.604Z,70.05
2023-04-22T08:15:42.755Z,70.26
2023-04-22T08:18:45.605Z,68.49
2023-04-22T08:21:48.506Z,69.08
2023-04-22T08:24:51.267Z,69.10
2023-04-22T08:27:54.081Z,69.88
2023-04-22T08:30:58.270Z,69.30
2023-04-22T08:34:00.924Z,68.92
2023-04-22T08:37:03.888Z,67.15
2023-04-22T08:40:08.191Z,67.57
2023-04-22T08:43:11.011Z,65.43
2023-04-22T08:46:16.772Z,63.66
2023-04-22T08:49:20.473Z,63.70
2023-04-22T08:52:23.365Z,62.28
2023-04-22T08:55:26.883Z,62.37
2023-04-22T08:58:31.016Z,61.04
2023-04-22T09:01:36.075Z,61.75
2023-04-22T09:04:38.902Z,60.21
2023-04-22T09:07:42.500Z,58.86
2023-04-22T09:10:45.237Z,57.35
2023-04-22T09:13:48.273Z,56.12
2023-04-22T09:16:52.391Z,56.86
2023-04-22T09:19:59.146Z,55.89
2023-04-22T09:23:04.934Z,55.28
2023-04-22T09:26:09.110Z,54.06
2023-04-22T09:29:15.837Z,55.48
2023-04-22T09:32:20.809Z,53.41
2023-04-22T09:35:31.913Z,54.44
2023-04-22T09:38:34.555Z,53.04
2023-04-22T09:41:38.759Z,54.86
2023-04-22T09:44:41.732Z,54.16
2023-04-22T09:47:47.627Z,54.03
2023-04-22T09:50:51.777Z,53.03
2023-04-22T09:54:08.935Z,51.16
2023-04-22T09:57:15.194Z,48.58
2023-04-22T10:00:18.689Z,47.32
2023-04-22T10:03:23.023Z,46.58
2023-04-22T10:06:25.875Z,47.61
2023-04-22T10:09:28.682Z,50.17
2023-04-22T10:12:35.833Z,47.73
2023-04-22T10:15:41.485Z,47.89
2023-04-22T10:18:46.334Z,46.47
2023-04-22T10:21:51.327Z,47.86
2023-04-22T10:24:56.078Z,45.87
2023-04-22T10:28:04.321Z,45.58
2023-04-22T10:31:08.212Z,45.83
2023-04-22T10:34:15.319Z,44.85
2023-04-22T10:37:20.767Z,43.71
2023-04-22T10:40:23.873Z,43.14
2023-04-22T10:43:42.267Z,42.73
2023-04-22T10:47:01.656Z,41.57
2023-04-22T10:50:18.880Z,38.74
2023-04-22T10:53:37.669Z,39.34
2023-04-22T10:57:04.578Z,40.46
2023-04-22T11:00:52.541Z,41.42
2023-04-22T11:04:23.369Z,43.66
2023-04-22T11:07:35.720Z,38.30
2023-04-22T11:10:44.159Z,38.44
2023-04-22T11:13:50.602Z,36.10
2023-04-22T11:16:53.960Z,31.61
2023-04-22T11:19:57.457Z,31.61
2023-04-22T11:23:01.553Z,32.70
2023-04-22T11:26:06.490Z,32.73
2023-04-22T11:29:09.784Z,31.44
2023-04-22T11:32:12.933Z,31.45
2023-04-22T11:35:22.034Z,30.61
2023-04-22T11:38:26.300Z,33.29
2023-04-22T11:41:29.973Z,31.12
2023-04-22T11:44:32.826Z,31.63
2023-04-22T11:47:36.606Z,32.15
2023-04-22T11:50:41.157Z,31.53
2023-04-22T11:53:52.318Z,32.18
2023-04-22T11:56:55.658Z,31.36
2023-04-22T11:59:59.878Z,32.06
2023-04-22T12:03:04.720Z,31.32
2023-04-22T12:06:07.784Z,30.76
2023-04-22T12:09:14.106Z,32.55
2023-04-22T12:12:16.777Z,31.62
2023-04-22T12:15:19.414Z,32.12
2023-04-22T12:18:30.018Z,31.93
2023-04-22T12:21:32.771Z,32.28
2023-04-22T12:24:36.800Z,32.77
2023-04-22T12:27:39.392Z,33.75
2023-04-22T12:30:42.248Z,33.36
2023-04-22T12:33:46.199Z,31.79
2023-04-22T12:36:48.914Z,32.62
2023-04-22T12:39:52.873Z,32.12
2023-04-22T12:42:55.574Z,32.43
2023-04-22T12:45:58.209Z,33.72
2023-04-22T12:49:01.241Z,34.81
2023-04-22T12:52:03.838Z,34.89
2023-04-22T12:55:09.117Z,33.26
2023-04-22T12:58:12.252Z,34.80
2023-04-22T13:01:14.936Z,34.53
2023-04-22T13:04:19.874Z,33.26
2023-04-22T13:07:22.685Z,32.91
2023-04-22T13:10:28.262Z,33.80
2023-04-22T13:13:30.911Z,34.18
2023-04-22T13:16:33.517Z,32.83
2023-04-22T13:19:36.396Z,33.20
2023-04-22T13:22:40.472Z,34.26
2023-04-22T13:25:44.462Z,35.40
2023-04-22T13:28:47.056Z,40.80
2023-04-22T13:31:49.718Z,41.50
2023-04-22T13:34:52.576Z,43.30
2023-04-22T13:37:55.288Z,43.71
2023-04-22T13:41:01.198Z,42.19
2023-04-22T13:44:05.423Z,43.20
2023-04-22T13:47:08.054Z,42.29
2023-04-22T13:50:11.631Z,43.31
2023-04-22T13:53:14.516Z,42.98
2023-04-22T13:56:18.503Z,42.66
2023-04-22T13:59:21.166Z,42.65
2023-04-22T14:02:23.936Z,41.50
2023-04-22T14:05:26.935Z,42.22
2023-04-22T14:08:29.814Z,41.92
2023-04-22T14:11:33.870Z,41.55
2023-04-22T14:14:36.535Z,41.93
2023-04-22T14:17:39.316Z,41.62
2023-04-22T14:20:43.073Z,41.67
2023-04-22T14:23:45.826Z,43.92
2023-04-22T14:26:49.798Z,43.34
2023-04-22T14:29:53.212Z,44.98
2023-04-22T14:32:55.893Z,43.38
2023-04-22T14:35:58.610Z,41.90
2023-04-22T14:39:01.258Z,38.95
2023-04-22T14:42:05.778Z,40.51
2023-04-22T14:45:09.216Z,38.83
2023-04-22T14:48:11.891Z,38.18
2023-04-22T14:51:14.539Z,39.19
2023-04-22T14:54:17.188Z,38.54
2023-04-22T14:57:21.151Z,38.85
2023-04-22T15:00:23.991Z,39.52
2023-04-22T15:03:26.904Z,39.50
2023-04-22T15:06:29.641Z,40.32
2023-04-22T15:09:32.843Z,39.46
2023-04-22T15:12:36.841Z,38.35
2023-04-22T15:15:39.575Z,38.90
2023-04-22T15:18:43.107Z,40.06
2023-04-22T15:21:46.714Z,39.79
2023-04-22T15:24:49.317Z,40.63
2023-04-22T15:27:56.398Z,40.64
2023-04-22T15:30:59.033Z,40.09
2023-04-22T15:34:01.663Z,40.85
2023-04-22T15:37:04.439Z,40.90
2023-04-22T15:40:09.947Z,40.78
2023-04-22T15:43:13.912Z,41.28
2023-04-22T15:46:16.541Z,41.24
2023-04-22T15:49:19.223Z,41.69
2023-04-22T15:52:21.824Z,41.97
2023-04-22T15:55:24.651Z,41.81
2023-04-22T15:58:32.391Z,40.94
2023-04-22T16:01:40.303Z,40.91
2023-04-22T16:04:43.303Z,41.08
2023-04-22T16:07:46.325Z,41.24
2023-04-22T16:10:49.010Z,41.47
2023-04-22T16:13:52.983Z,40.75
2023-04-22T16:16:55.748Z,40.49
2023-04-22T16:19:58.503Z,42.90
2023-04-22T16:23:01.241Z,41.46
2023-04-22T16:26:05.584Z,40.67
2023-04-22T16:29:09.557Z,41.00
2023-04-22T16:32:12.360Z,42.37
2023-04-22T16:35:14.950Z,41.57
2023-04-22T16:38:17.646Z,40.23
2023-04-22T16:41:21.536Z,40.19
2023-04-22T16:44:25.659Z,41.15
2023-04-22T16:47:28.353Z,41.19
2023-04-22T16:50:31.035Z,42.26
2023-04-22T16:53:33.771Z,42.27
2023-04-22T16:56:37.463Z,42.11
2023-04-22T16:59:41.637Z,43.02
2023-04-22T17:02:44.660Z,43.13
2023-04-22T17:05:47.287Z,43.50
2023-04-22T17:08:49.978Z,43.40
2023-04-22T17:11:52.611Z,43.40
2023-04-22T17:14:56.545Z,44.25
2023-04-22T17:17:59.268Z,44.14
2023-04-22T17:21:01.933Z,45.82
2023-04-22T17:24:05.827Z,46.06
2023-04-22T17:27:08.528Z,49.05
2023-04-22T17:30:13.447Z,49.73
2023-04-22T17:33:16.237Z,51.77
2023-04-22T17:36:20.081Z,52.73
2023-04-22T17:39:22.778Z,53.58
2023-04-22T17:42:38.905Z,52.23
2023-04-22T17:45:46.814Z,52.04
2023-04-22T17:48:49.427Z,53.49
2023-04-22T17:51:52.019Z,53.60
2023-04-22T17:54:54.722Z,53.32
2023-04-22T17:57:57.364Z,53.65
2023-04-22T18:01:01.392Z,57.59
2023-04-22T18:04:04.580Z,61.28
2023-04-22T18:07:07.311Z,61.99
2023-04-22T18:10:11.641Z,66.00
2023-04-22T18:13:14.470Z,69.50
2023-04-22T18:16:18.545Z,71.99
2023-04-22T18:19:21.302Z,74.36
2023-04-22T18:22:25.145Z,76.12
2023-04-22T18:25:28.195Z,77.11
2023-04-22T18:28:30.836Z,77.34
2023-04-22T18:31:34.806Z,76.79
2023-04-22T18:34:37.609Z,74.39
2023-04-22T18:37:40.231Z,68.89
2023-04-22T18:40:42.827Z,68.39
2023-04-22T18:43:47.081Z,65.34
2023-04-22T18:46:52.938Z,65.99
2023-04-22T18:49:55.561Z,64.93
2023-04-22T18:52:58.157Z,64.12
2023-04-22T18:56:00.911Z,64.44
2023-04-22T18:59:03.558Z,64.80
2023-04-22T19:02:08.363Z,64.71
2023-04-22T19:05:13.992Z,61.84
2023-04-22T19:08:17.163Z,62.34
2023-04-22T19:11:20.119Z,62.65
2023-04-22T19:14:22.751Z,63.16
2023-04-22T19:17:27.214Z,62.96
2023-04-22T19:20:29.984Z,63.43
2023-04-22T19:23:32.642Z,63.06
2023-04-22T19:26:35.533Z,64.19
2023-04-22T19:29:38.568Z,64.04
2023-04-22T19:32:43.094Z,64.70
2023-04-22T19:35:46.239Z,65.89
2023-04-22T19:38:48.948Z,65.31
2023-04-22T19:41:51.770Z,66.05
2023-04-22T19:44:54.749Z,66.08
2023-04-22T19:47:59.920Z,66.40
2023-04-22T19:51:04.417Z,67.17
2023-04-22T19:54:08.355Z,67.75
2023-04-22T19:57:12.815Z,67.21
2023-04-22T20:00:16.418Z,67.16
2023-04-22T20:03:22.585Z,65.36
2023-04-22T20:06:25.707Z,64.60
2023-04-22T20:09:29.015Z,63.57
2023-04-22T20:12:32.231Z,62.21
2023-04-22T20:15:35.289Z,62.49
2023-04-22T20:18:39.848Z,61.27
2023-04-22T20:21:42.922Z,62.49
2023-04-22T20:24:46.654Z,63.42
2023-04-22T20:27:49.659Z,65.00
2023-04-22T20:30:52.664Z,63.03
2023-04-22T20:33:57.253Z,61.20
2023-04-22T20:37:02.066Z,63.78
2023-04-22T20:40:08.187Z,66.61
2023-04-22T20:43:11.226Z,69.09
2023-04-22T20:46:14.136Z,69.61
2023-04-22T20:49:18.417Z,70.40
2023-04-22T20:52:21.118Z,71.70
2023-04-22T20:55:24.019Z,71.91
2023-04-22T20:58:28.021Z,72.17
2023-04-22T21:01:31.386Z,72.34
2023-04-22T21:04:36.354Z,72.19
2023-04-22T21:07:40.684Z,72.18
2023-04-22T21:10:44.026Z,73.55
2023-04-22T21:13:47.472Z,73.22
2023-04-22T21:16:56.274Z,73.12
2023-04-22T21:20:02.676Z,72.77
2023-04-22T21:23:07.773Z,73.04
2023-04-22T21:26:11.384Z,73.01
2023-04-22T21:29:14.663Z,73.17
2023-04-22T21:32:20.102Z,74.08
2023-04-22T21:35:24.648Z,74.16
2023-04-22T21:38:27.516Z,74.26
2023-04-22T21:41:30.253Z,73.86
2023-04-22T21:44:33.120Z,73.93
2023-04-22T21:47:35.940Z,73.95
2023-04-22T21:50:39.980Z,73.32
2023-04-22T21:53:42.774Z,72.50
2023-04-22T21:56:45.610Z,69.02
2023-04-22T21:59:48.298Z,68.25
2023-04-22T22:02:52.437Z,67.53
2023-04-22T22:05:56.796Z,68.49
2023-04-22T22:08:59.678Z,67.31
2023-04-22T22:12:02.923Z,68.94
2023-04-22T22:15:08.558Z,69.44
2023-04-22T22:18:11.300Z,68.72
2023-04-22T22:21:15.269Z,68.87
2023-04-22T22:24:18.016Z,68.21
2023-04-22T22:27:20.776Z,68.02
2023-04-22T22:30:23.456Z,67.78
2023-04-22T22:33:26.232Z,69.37
2023-04-22T22:36:30.303Z,70.60
2023-04-22T22:39:33.128Z,70.67
2023-04-22T22:42:36.117Z,66.64
2023-04-22T22:45:38.933Z,65.04
2023-04-22T22:48:41.766Z,65.01
2023-04-22T22:51:45.935Z,64.45
2023-04-22T22:54:49.936Z,64.69
2023-04-22T22:57:52.602Z,64.80
2023-04-22T23:00:55.392Z,63.91
2023-04-22T23:03:58.397Z,62.77
2023-04-22T23:07:02.644Z,63.44
2023-04-22T23:10:06.451Z,63.25
2023-04-22T23:13:09.152Z,63.19
2023-04-22T23:16:12.097Z,63.71
2023-04-22T23:19:16.983Z,64.11
2023-04-22T23:22:21.579Z,65.08
2023-04-22T23:25:25.066Z,66.36
2023-04-22T23:28:28.372Z,67.72
2023-04-22T23:31:33.104Z,65.38
2023-04-22T23:34:36.682Z,65.06
2023-04-22T23:37:44.457Z,67.93
2023-04-22T23:40:47.281Z,68.93
2023-04-22T23:43:50.064Z,67.18
2023-04-22T23:46:52.936Z,64.93
2023-04-22T23:49:55.785Z,63.21
2023-04-22T23:52:59.865Z,63.60
2023-04-22T23:56:03.032Z,63.18
2023-04-22T23:59:07.237Z,63.21
